This is the latest recevied weather packets stored in our database for station/object DM4XI-13. If no packets are shown the sender has not sent any weather packets the latest 10 day(s).
| Time | Temp. | Humidity | Pressure | Rain* | Wind** | Luminosity | Snow |
|---|---|---|---|---|---|---|---|
| 1777795427 | 18.89° C | 42% | 1014.3 hPa | 0 mm | 0 m/s | 400 W/m² | - |
| 1777795365 | 18.89° C | 42% | 1014.3 hPa | 0 mm | 0 m/s | 398 W/m² | - |
| 1777795304 | 18.89° C | 42% | 1014.3 hPa | 0 mm | 0.45 m/s, 200° | 397 W/m² | - |
| 1777795243 | 18.89° C | 42% | 1014.3 hPa | 0 mm | 0.45 m/s, 199° | 385 W/m² | - |
| 1777795182 | 18.89° C | 43% | 1014.1 hPa | 0 mm | 0 m/s | 372 W/m² | - |
| 1777795121 | 18.89° C | 43% | 1014.2 hPa | 0 mm | 0 m/s | 362 W/m² | - |
| 1777795060 | 18.89° C | 43% | 1014.4 hPa | 0 mm | 0.45 m/s, 179° | 362 W/m² | - |
| 1777794999 | 18.89° C | 42% | 1014.2 hPa | 0 mm | 0.45 m/s, 186° | 363 W/m² | - |
| 1777794938 | 18.89° C | 44% | 1014.2 hPa | 0 mm | 0.45 m/s, 182° | 355 W/m² | - |
| 1777794877 | 18.33° C | 44% | 1014.2 hPa | 0 mm | 0 m/s | 352 W/m² | - |
| 1777794816 | 18.33° C | 45% | 1014.5 hPa | 0 mm | 0.45 m/s, 202° | 348 W/m² | - |
| 1777794755 | 17.78° C | 44% | 1014.4 hPa | 0 mm | 0 m/s | 351 W/m² | - |
| 1777794694 | 17.78° C | 44% | 1014.3 hPa | 0 mm | 0.45 m/s, 202° | 349 W/m² | - |
| 1777794633 | 17.22° C | 47% | 1014.3 hPa | 0 mm | 0 m/s | 347 W/m² | - |
| 1777794573 | 17.22° C | 47% | 1014.4 hPa | 0 mm | 0 m/s | 344 W/m² | - |
| 1777794511 | 17.22° C | 46% | 1014.1 hPa | 0 mm | 0 m/s | 334 W/m² | - |
| 1777794452 | 17.22° C | 46% | 1014.4 hPa | 0 mm | 0.89 m/s, 177° | 345 W/m² | - |
| 1777794389 | 17.22° C | 47% | 1014.3 hPa | 0 mm | 0.45 m/s, 177° | 357 W/m² | - |
| 1777794328 | 17.22° C | 47% | 1014.3 hPa | 0 mm | 0 m/s | 357 W/m² | - |
| 1777794267 | 17.78° C | 46% | 1014.4 hPa | 0 mm | 0.89 m/s, 175° | 356 W/m² | - |
| 1777794206 | 17.78° C | 47% | 1014.2 hPa | 0 mm | 0.45 m/s, 187° | 353 W/m² | - |
| 1777794145 | 18.33° C | 44% | 1014.2 hPa | 0 mm | 0.89 m/s, 167° | 346 W/m² | - |
| 1777794084 | 18.33° C | 44% | 1014.3 hPa | 0 mm | 1.34 m/s, 169° | 338 W/m² | - |
| 1777794023 | 18.33° C | 44% | 1014.2 hPa | 0 mm | 0 m/s | 330 W/m² | - |
| 1777793962 | 18.33° C | 43% | 1014.3 hPa | 0 mm | 0 m/s | 329 W/m² | - |
* Rain latest hour (hover to see other rain measurements)
** Current wind speed in m/s (hover to see current wind gust speed)